createdAt,value
2018-01-13T00:01:43.199Z,27.25
2018-01-13T00:04:10.697Z,26.37
2018-01-13T00:06:38.205Z,25.85
2018-01-13T00:09:05.824Z,24.30
2018-01-13T00:11:33.310Z,25.60
2018-01-13T00:14:01.559Z,27.33
2018-01-13T00:16:29.079Z,26.55
2018-01-13T00:18:57.311Z,26.55
2018-01-13T00:21:24.818Z,25.37
2018-01-13T00:23:52.585Z,26.95
2018-01-13T00:26:20.168Z,27.05
2018-01-13T00:28:47.698Z,27.37
2018-01-13T00:31:15.356Z,26.80
2018-01-13T00:33:43.602Z,25.62
2018-01-13T00:36:11.096Z,26.67
2018-01-13T00:38:39.347Z,24.85
2018-01-13T00:41:06.835Z,27.35
2018-01-13T00:43:34.311Z,25.40
2018-01-13T00:46:01.813Z,25.27
2018-01-13T00:48:29.287Z,27.08
2018-01-13T00:50:57.527Z,27.13
2018-01-13T00:53:25.451Z,26.50
2018-01-13T00:55:52.940Z,24.90
2018-01-13T00:58:20.434Z,26.92
2018-01-13T01:00:47.928Z,27.75
2018-01-13T01:03:15.404Z,26.62
2018-01-13T01:05:42.943Z,27.60
2018-01-13T01:08:10.427Z,27.70
2018-01-13T01:10:37.911Z,26.83
2018-01-13T01:13:05.411Z,26.15
2018-01-13T01:15:32.915Z,27.15
2018-01-13T01:18:00.395Z,27.77
2018-01-13T01:20:27.883Z,27.02
2018-01-13T01:22:55.608Z,29.77
2018-01-13T01:25:23.084Z,28.62
2018-01-13T01:27:51.397Z,27.42
2018-01-13T01:30:18.879Z,27.95
2018-01-13T01:32:46.437Z,28.30
2018-01-13T01:35:14.329Z,27.95
2018-01-13T01:37:41.812Z,28.80
2018-01-13T01:40:09.296Z,29.27
2018-01-13T01:42:37.604Z,29.50
2018-01-13T01:45:05.928Z,26.62
2018-01-13T01:47:33.814Z,27.75
2018-01-13T01:50:01.291Z,29.98
2018-01-13T01:52:28.800Z,28.67
2018-01-13T01:54:58.175Z,27.27
2018-01-13T01:57:26.052Z,25.80
2018-01-13T01:59:53.546Z,24.10
2018-01-13T02:02:21.116Z,26.23
2018-01-13T02:04:48.607Z,23.45
2018-01-13T02:07:16.102Z,24.08
2018-01-13T02:09:43.632Z,28.10
2018-01-13T02:12:11.099Z,24.48
2018-01-13T02:14:38.608Z,24.85
2018-01-13T02:17:06.083Z,23.33
2018-01-13T02:19:33.638Z,23.52
2018-01-13T02:22:01.154Z,22.02
2018-01-13T02:24:28.655Z,22.02
2018-01-13T02:26:56.199Z,22.23
2018-01-13T02:29:24.442Z,22.13
2018-01-13T02:31:52.439Z,21.12
2018-01-13T02:34:19.915Z,20.85
2018-01-13T02:36:47.728Z,20.00
2018-01-13T02:39:15.986Z,20.45
2018-01-13T02:41:43.481Z,19.90
2018-01-13T02:44:10.980Z,19.00
2018-01-13T02:46:38.472Z,18.52
2018-01-13T02:49:06.720Z,18.20
2018-01-13T02:51:34.616Z,19.83
2018-01-13T02:54:02.863Z,18.23
2018-01-13T02:56:30.356Z,17.75
2018-01-13T02:58:58.618Z,18.45
2018-01-13T03:01:26.095Z,18.08
2018-01-13T03:03:54.331Z,18.75
2018-01-13T03:06:22.243Z,17.40
2018-01-13T03:08:49.725Z,17.30
2018-01-13T03:11:17.191Z,17.25
2018-01-13T03:13:44.675Z,17.10
2018-01-13T03:16:12.163Z,17.80
2018-01-13T03:18:40.407Z,18.35
2018-01-13T03:21:07.939Z,18.45
2018-01-13T03:23:35.812Z,17.87
2018-01-13T03:26:03.281Z,18.77
2018-01-13T03:28:30.931Z,18.20
2018-01-13T03:30:58.818Z,17.42
2018-01-13T03:33:26.445Z,19.40
2018-01-13T03:35:53.996Z,19.02
2018-01-13T03:38:21.472Z,19.15
2018-01-13T03:40:48.980Z,18.85
2018-01-13T03:43:17.252Z,18.80
2018-01-13T03:45:44.845Z,18.55
2018-01-13T03:48:13.510Z,18.42
2018-01-13T03:50:41.000Z,17.83
2018-01-13T03:53:08.471Z,18.40
2018-01-13T03:55:35.955Z,18.10
2018-01-13T03:58:03.439Z,19.52
2018-01-13T04:00:30.937Z,20.85
2018-01-13T04:02:58.465Z,18.92
2018-01-13T04:05:26.410Z,20.12
2018-01-13T04:07:54.662Z,18.77
2018-01-13T04:10:22.143Z,19.40
2018-01-13T04:12:50.399Z,20.55
2018-01-13T04:15:18.295Z,19.40
2018-01-13T04:17:45.795Z,19.92
2018-01-13T04:20:13.329Z,20.95
2018-01-13T04:22:40.841Z,19.98
2018-01-13T04:25:08.363Z,20.83
2018-01-13T04:27:35.875Z,20.27
2018-01-13T04:30:04.121Z,20.10
2018-01-13T04:32:31.610Z,21.23
2018-01-13T04:35:00.257Z,20.45
2018-01-13T04:37:27.890Z,21.00
2018-01-13T04:39:55.367Z,20.42
2018-01-13T04:42:22.874Z,21.95
2018-01-13T04:44:51.159Z,22.95
2018-01-13T04:47:18.650Z,21.95
2018-01-13T04:49:46.140Z,22.02
2018-01-13T04:52:13.627Z,23.00
2018-01-13T04:54:41.874Z,23.77
2018-01-13T04:57:09.792Z,23.87
2018-01-13T04:59:37.298Z,24.75
2018-01-13T05:02:04.810Z,21.85
2018-01-13T05:04:32.625Z,22.95
2018-01-13T05:07:00.108Z,24.15
2018-01-13T05:09:27.599Z,23.67
2018-01-13T05:11:55.110Z,23.15
2018-01-13T05:14:23.020Z,23.38
2018-01-13T05:16:50.495Z,23.80
2018-01-13T05:19:19.062Z,25.20
2018-01-13T05:21:46.532Z,27.00
2018-01-13T05:24:14.023Z,23.38
2018-01-13T05:26:41.508Z,24.27
2018-01-13T05:29:08.987Z,26.27
2018-01-13T05:31:36.507Z,25.55
2018-01-13T05:34:04.775Z,26.20
2018-01-13T05:36:33.099Z,27.98
2018-01-13T05:39:00.626Z,27.90
2018-01-13T05:41:28.995Z,27.50
2018-01-13T05:43:57.235Z,26.50
2018-01-13T05:46:24.710Z,28.45
2018-01-13T05:48:53.739Z,25.80
2018-01-13T05:51:21.218Z,25.65
2018-01-13T05:53:48.699Z,27.90
2018-01-13T05:56:16.233Z,25.37
2018-01-13T05:58:43.759Z,26.50
2018-01-13T06:01:12.040Z,25.17
2018-01-13T06:03:40.296Z,26.33
2018-01-13T06:06:08.163Z,25.67
2018-01-13T06:08:36.045Z,26.02
2018-01-13T06:11:03.908Z,28.08
2018-01-13T06:13:32.151Z,27.25
2018-01-13T06:15:59.626Z,29.12
2018-01-13T06:18:27.515Z,28.67
2018-01-13T06:20:55.385Z,28.83
2018-01-13T06:23:22.880Z,29.20
2018-01-13T06:25:50.787Z,30.15
2018-01-13T06:28:19.035Z,29.00
2018-01-13T06:30:46.533Z,30.12
2018-01-13T06:33:14.055Z,29.73
2018-01-13T06:35:41.531Z,29.92
2018-01-13T06:38:09.407Z,32.95
2018-01-13T06:40:37.318Z,29.80
2018-01-13T06:43:04.841Z,31.83
2018-01-13T06:45:33.123Z,34.03
2018-01-13T06:48:00.707Z,30.95
2018-01-13T06:50:28.183Z,33.30
2018-01-13T06:52:56.074Z,33.20
2018-01-13T06:55:25.061Z,35.10
2018-01-13T06:57:52.899Z,36.08
2018-01-13T07:00:20.372Z,38.75
2018-01-13T07:02:48.291Z,41.58
2018-01-13T07:05:17.114Z,43.95
2018-01-13T07:07:44.591Z,43.25
2018-01-13T07:10:12.132Z,39.80
2018-01-13T07:12:39.623Z,42.60
2018-01-13T07:15:07.498Z,43.45
2018-01-13T07:17:35.755Z,44.35
2018-01-13T07:20:03.654Z,43.65
2018-01-13T07:22:31.517Z,43.97
2018-01-13T07:24:59.824Z,43.17
2018-01-13T07:27:28.427Z,41.55
2018-01-13T07:29:56.687Z,39.38
2018-01-13T07:32:24.177Z,42.15
2018-01-13T07:34:51.657Z,42.72
2018-01-13T07:37:19.974Z,42.53
2018-01-13T07:39:47.867Z,39.15
2018-01-13T07:42:15.403Z,42.78
2018-01-13T07:44:44.050Z,40.12
2018-01-13T07:47:14.306Z,44.53
2018-01-13T07:49:44.055Z,38.30
2018-01-13T07:52:12.007Z,41.65
2018-01-13T07:54:39.501Z,40.47
2018-01-13T07:57:07.771Z,39.55
2018-01-13T07:59:35.643Z,38.30
2018-01-13T08:02:03.150Z,36.80
2018-01-13T08:04:30.665Z,38.08
2018-01-13T08:06:58.921Z,35.83
2018-01-13T08:09:26.804Z,39.13
2018-01-13T08:11:55.067Z,39.10
2018-01-13T08:14:22.627Z,40.08
2018-01-13T08:16:50.511Z,39.55
2018-01-13T08:19:18.771Z,37.10
2018-01-13T08:21:46.239Z,37.60
2018-01-13T08:24:14.170Z,36.83
2018-01-13T08:26:41.667Z,35.53
2018-01-13T08:29:09.575Z,38.05
2018-01-13T08:31:37.072Z,37.63
2018-01-13T08:34:04.640Z,37.78
2018-01-13T08:36:32.510Z,39.45
2018-01-13T08:39:00.818Z,38.38
2018-01-13T08:41:28.715Z,37.45
2018-01-13T08:43:56.771Z,39.75
2018-01-13T08:46:24.277Z,38.47
2018-01-13T08:48:51.763Z,39.25
2018-01-13T08:51:19.234Z,37.58
2018-01-13T08:53:46.743Z,39.00
2018-01-13T08:56:14.207Z,38.33
2018-01-13T08:58:42.112Z,38.42
2018-01-13T09:01:10.766Z,40.00
2018-01-13T09:03:39.496Z,39.78
2018-01-13T09:06:18.059Z,40.97
2018-01-13T09:08:46.637Z,42.08
2018-01-13T09:11:14.525Z,40.33
2018-01-13T09:13:42.772Z,39.47
2018-01-13T09:16:10.250Z,40.78
2018-01-13T09:18:38.499Z,40.55
2018-01-13T09:21:06.032Z,41.13
2018-01-13T09:23:33.513Z,40.58
2018-01-13T09:26:01.404Z,40.38
2018-01-13T09:28:28.950Z,38.05
2018-01-13T09:30:56.395Z,41.70
2018-01-13T09:33:23.871Z,39.55
2018-01-13T09:35:51.744Z,37.90
2018-01-13T09:38:20.066Z,38.35
2018-01-13T09:40:48.035Z,38.92
2018-01-13T09:43:15.839Z,38.45
2018-01-13T09:45:43.357Z,38.00
2018-01-13T09:48:11.243Z,39.95
2018-01-13T09:50:38.743Z,37.95
2018-01-13T09:53:07.002Z,39.85
2018-01-13T09:55:34.488Z,38.88
2018-01-13T09:58:01.988Z,36.92
2018-01-13T10:00:29.467Z,38.00
2018-01-13T10:02:57.324Z,35.88
2018-01-13T10:05:24.819Z,36.78
2018-01-13T10:07:53.055Z,36.33
2018-01-13T10:10:20.547Z,36.45
2018-01-13T10:12:48.435Z,38.78
2018-01-13T10:15:16.667Z,35.53
2018-01-13T10:17:44.919Z,39.25
2018-01-13T10:20:12.465Z,41.97
2018-01-13T10:22:39.943Z,38.83
2018-01-13T10:25:07.480Z,36.83
2018-01-13T10:27:34.987Z,40.42
2018-01-13T10:30:02.860Z,39.78
2018-01-13T10:32:31.101Z,41.58
2018-01-13T10:34:58.606Z,40.00
2018-01-13T10:37:26.489Z,43.35
2018-01-13T10:39:54.457Z,44.22
2018-01-13T10:42:22.075Z,43.20
2018-01-13T10:44:49.977Z,44.65
2018-01-13T10:47:17.467Z,45.83
2018-01-13T10:49:44.963Z,44.47
2018-01-13T10:52:12.461Z,42.60
2018-01-13T10:54:39.938Z,42.03
2018-01-13T10:57:07.444Z,44.58
2018-01-13T10:59:35.001Z,43.47
2018-01-13T11:02:03.288Z,41.35
2018-01-13T11:04:31.701Z,43.95
2018-01-13T11:06:59.269Z,43.15
2018-01-13T11:09:26.795Z,43.25
2018-01-13T11:11:54.315Z,45.45
2018-01-13T11:14:21.792Z,45.53
2018-01-13T11:16:50.039Z,46.75
2018-01-13T11:19:17.541Z,45.90
2018-01-13T11:21:45.435Z,47.90
2018-01-13T11:24:13.673Z,46.35
2018-01-13T11:26:41.943Z,47.03
2018-01-13T11:29:10.198Z,47.53
2018-01-13T11:31:37.684Z,49.92
2018-01-13T11:34:06.279Z,48.87
2018-01-13T11:36:34.171Z,51.10
2018-01-13T11:39:01.691Z,50.15
2018-01-13T11:41:29.947Z,50.17
2018-01-13T11:43:57.432Z,49.75
2018-01-13T11:46:24.935Z,51.13
2018-01-13T11:48:52.427Z,49.47
2018-01-13T11:51:19.912Z,50.72
2018-01-13T11:53:47.392Z,48.33
2018-01-13T11:56:15.634Z,53.70
2018-01-13T11:58:43.874Z,53.47
2018-01-13T12:01:11.359Z,50.58
2018-01-13T12:03:39.619Z,50.60
2018-01-13T12:06:07.114Z,50.45
2018-01-13T12:08:34.651Z,46.67
2018-01-13T12:11:02.928Z,50.17
2018-01-13T12:13:30.822Z,48.85
2018-01-13T12:15:58.324Z,51.25
2018-01-13T12:18:26.254Z,50.55
2018-01-13T12:20:53.739Z,48.63
2018-01-13T12:23:21.256Z,46.75
2018-01-13T12:25:48.739Z,48.53
2018-01-13T12:28:16.236Z,47.33
2018-01-13T12:30:43.749Z,49.40
2018-01-13T12:33:11.488Z,49.45
2018-01-13T12:35:39.831Z,46.83
2018-01-13T12:38:07.316Z,49.05
2018-01-13T12:40:34.900Z,48.45
2018-01-13T12:43:02.820Z,46.33
2018-01-13T12:45:30.361Z,47.85
2018-01-13T12:47:57.884Z,48.67
2018-01-13T12:50:25.364Z,47.40
2018-01-13T12:52:52.875Z,47.67
2018-01-13T12:55:20.464Z,47.72
2018-01-13T12:57:47.947Z,45.53
2018-01-13T13:00:15.414Z,51.70
2018-01-13T13:02:43.893Z,49.67
2018-01-13T13:05:11.468Z,48.35
2018-01-13T13:07:39.715Z,47.30
2018-01-13T13:10:07.659Z,47.88
2018-01-13T13:12:35.143Z,43.53
2018-01-13T13:15:02.612Z,45.45
2018-01-13T13:17:30.641Z,43.38
2018-01-13T13:19:58.148Z,43.80
2018-01-13T13:22:25.642Z,42.53
2018-01-13T13:24:53.585Z,43.05
2018-01-13T13:27:21.019Z,40.67
2018-01-13T13:29:48.522Z,39.22
2018-01-13T13:32:16.031Z,40.10
2018-01-13T13:34:44.375Z,40.67
2018-01-13T13:37:11.933Z,39.88
2018-01-13T13:39:39.458Z,39.45
2018-01-13T13:42:06.944Z,40.35
2018-01-13T13:44:34.433Z,38.50
2018-01-13T13:47:01.935Z,36.78
2018-01-13T13:49:30.195Z,39.90
2018-01-13T13:51:57.659Z,35.45
2018-01-13T13:54:25.974Z,37.38
2018-01-13T13:56:53.849Z,38.10
2018-01-13T13:59:21.732Z,34.88
2018-01-13T14:01:49.252Z,35.38
2018-01-13T14:04:16.760Z,34.35
2018-01-13T14:06:44.627Z,34.53
2018-01-13T14:09:12.112Z,35.05
2018-01-13T14:11:40.426Z,34.88
2018-01-13T14:14:07.925Z,33.95
2018-01-13T14:16:36.219Z,33.63
2018-01-13T14:19:04.488Z,36.22
2018-01-13T14:21:32.390Z,34.85
2018-01-13T14:23:59.904Z,34.20
2018-01-13T14:26:27.398Z,34.03
2018-01-13T14:28:54.886Z,32.78
2018-01-13T14:31:22.369Z,35.85
2018-01-13T14:33:49.876Z,31.52
2018-01-13T14:36:17.447Z,35.35
2018-01-13T14:38:45.345Z,32.70
2018-01-13T14:41:12.835Z,30.77
2018-01-13T14:43:41.063Z,30.60
2018-01-13T14:46:09.315Z,30.15
2018-01-13T14:48:36.779Z,28.77
2018-01-13T14:51:04.281Z,31.00
2018-01-13T14:53:31.783Z,28.85
2018-01-13T14:55:59.251Z,28.83
2018-01-13T14:58:27.895Z,26.77
2018-01-13T15:00:55.404Z,29.60
2018-01-13T15:03:22.889Z,26.58
2018-01-13T15:05:50.360Z,26.30
2018-01-13T15:08:18.273Z,27.98
2018-01-13T15:10:45.740Z,27.10
2018-01-13T15:13:13.212Z,25.25
2018-01-13T15:15:41.119Z,25.10
2018-01-13T15:18:09.364Z,25.60
2018-01-13T15:20:36.863Z,23.85
2018-01-13T15:23:05.172Z,24.98
2018-01-13T15:25:33.135Z,25.52
2018-01-13T15:28:01.021Z,24.75
2018-01-13T15:30:28.560Z,25.98
2018-01-13T15:32:56.768Z,23.90
2018-01-13T15:35:24.263Z,24.95
2018-01-13T15:37:52.531Z,26.23
2018-01-13T15:40:20.407Z,25.10
2018-01-13T15:42:48.676Z,27.27
2018-01-13T15:45:16.187Z,25.05
2018-01-13T15:47:44.452Z,24.10
2018-01-13T15:50:11.954Z,23.50
2018-01-13T15:52:39.823Z,24.25
2018-01-13T15:55:07.702Z,24.85
2018-01-13T15:57:35.967Z,23.15
2018-01-13T16:00:03.443Z,24.45
2018-01-13T16:02:31.314Z,25.77
2018-01-13T16:04:58.791Z,24.85
2018-01-13T16:07:26.291Z,26.83
2018-01-13T16:09:54.163Z,26.33
2018-01-13T16:12:21.631Z,27.30
2018-01-13T16:14:49.899Z,27.48
2018-01-13T16:17:17.363Z,27.85
2018-01-13T16:19:45.666Z,25.37
2018-01-13T16:22:13.160Z,26.05
2018-01-13T16:24:40.650Z,26.92
2018-01-13T16:27:08.895Z,24.87
2018-01-13T16:29:36.383Z,26.77
2018-01-13T16:32:04.264Z,25.90
2018-01-13T16:34:32.128Z,27.48
2018-01-13T16:37:00.707Z,26.45
2018-01-13T16:39:28.217Z,28.05
2018-01-13T16:41:55.716Z,27.83
2018-01-13T16:44:23.979Z,25.37
2018-01-13T16:46:52.959Z,24.60
2018-01-13T16:49:20.448Z,24.80
2018-01-13T16:51:48.713Z,26.58
2018-01-13T16:54:16.183Z,25.52
2018-01-13T16:56:44.427Z,25.30
2018-01-13T16:59:12.695Z,25.45
2018-01-13T17:01:40.579Z,26.02
2018-01-13T17:04:08.455Z,25.08
2018-01-13T17:06:36.066Z,25.50
2018-01-13T17:09:03.535Z,24.25
2018-01-13T17:11:31.431Z,24.05
2018-01-13T17:13:59.706Z,22.75
2018-01-13T17:16:27.186Z,23.27
2018-01-13T17:18:55.079Z,22.90
2018-01-13T17:21:22.590Z,23.85
2018-01-13T17:23:50.085Z,22.35
2018-01-13T17:26:17.572Z,23.60
2018-01-13T17:28:45.342Z,22.77
2018-01-13T17:31:12.815Z,23.02
2018-01-13T17:33:40.305Z,22.60
2018-01-13T17:36:07.802Z,22.73
2018-01-13T17:38:35.357Z,21.92
2018-01-13T17:41:03.602Z,22.65
2018-01-13T17:43:31.878Z,22.62
2018-01-13T17:46:00.190Z,22.67
2018-01-13T17:48:28.388Z,22.65
2018-01-13T17:50:56.267Z,22.80
2018-01-13T17:53:23.736Z,20.25
2018-01-13T17:55:51.647Z,20.35
2018-01-13T17:58:19.942Z,19.37
2018-01-13T18:00:47.427Z,19.70
2018-01-13T18:03:15.309Z,19.62
2018-01-13T18:05:43.197Z,20.33
2018-01-13T18:08:11.068Z,20.30
2018-01-13T18:10:38.641Z,20.65
2018-01-13T18:13:06.233Z,20.88
2018-01-13T18:15:34.139Z,21.20
2018-01-13T18:18:02.137Z,21.55
2018-01-13T18:20:30.387Z,20.90
2018-01-13T18:22:58.264Z,20.15
2018-01-13T18:25:25.743Z,20.80
2018-01-13T18:27:53.675Z,22.23
2018-01-13T18:30:21.184Z,21.55
2018-01-13T18:32:49.063Z,22.20
2018-01-13T18:35:16.867Z,21.37
2018-01-13T18:37:44.350Z,20.80
2018-01-13T18:40:12.232Z,21.20
2018-01-13T18:42:40.881Z,21.30
2018-01-13T18:45:09.749Z,22.75
2018-01-13T18:47:37.279Z,23.85
2018-01-13T18:50:05.539Z,21.45
2018-01-13T18:52:33.026Z,22.62
2018-01-13T18:55:00.529Z,22.48
2018-01-13T18:57:28.772Z,21.20
2018-01-13T18:59:56.309Z,21.10
2018-01-13T19:02:23.830Z,20.98
2018-01-13T19:04:52.780Z,21.70
2018-01-13T19:07:21.038Z,22.95
2018-01-13T19:09:48.512Z,20.83
2018-01-13T19:12:17.204Z,22.33
2018-01-13T19:14:45.081Z,21.12
2018-01-13T19:17:12.960Z,21.58
2018-01-13T19:19:40.839Z,25.55
2018-01-13T19:22:08.338Z,23.83
2018-01-13T19:24:36.223Z,23.58
2018-01-13T19:27:04.811Z,21.85
2018-01-13T19:29:32.690Z,24.23
2018-01-13T19:32:00.687Z,22.15
2018-01-13T19:34:28.509Z,24.27
2018-01-13T19:36:56.773Z,25.10
2018-01-13T19:39:24.704Z,27.15
2018-01-13T19:41:52.514Z,28.62
2018-01-13T19:44:20.399Z,27.20
2018-01-13T19:46:47.876Z,27.75
2018-01-13T19:49:16.104Z,27.70
2018-01-13T19:51:43.600Z,26.95
2018-01-13T19:54:11.483Z,27.73
2018-01-13T19:56:40.019Z,28.90
2018-01-13T19:59:07.898Z,28.50
2018-01-13T20:01:36.144Z,27.58
2018-01-13T20:04:03.979Z,29.20
2018-01-13T20:06:31.493Z,27.17
2018-01-13T20:08:59.390Z,27.98
2018-01-13T20:11:27.331Z,27.25
2018-01-13T20:13:55.197Z,26.25
2018-01-13T20:16:22.789Z,26.95
2018-01-13T20:18:50.298Z,28.98
2018-01-13T20:21:17.857Z,31.98
2018-01-13T20:23:45.335Z,36.45
2018-01-13T20:26:13.598Z,32.50
2018-01-13T20:28:41.891Z,29.95
2018-01-13T20:31:09.783Z,30.33
2018-01-13T20:33:37.616Z,35.42
2018-01-13T20:36:05.500Z,30.55
2018-01-13T20:38:33.073Z,29.67
2018-01-13T20:41:01.315Z,37.38
2018-01-13T20:43:29.559Z,34.17
2018-01-13T20:45:57.082Z,32.40
2018-01-13T20:48:25.427Z,34.05
2018-01-13T20:50:53.675Z,44.15
2018-01-13T20:53:21.179Z,38.47
2018-01-13T20:55:49.012Z,33.65
2018-01-13T20:58:16.892Z,33.08
2018-01-13T21:00:44.805Z,33.60
2018-01-13T21:03:12.944Z,30.60
2018-01-13T21:05:40.852Z,32.03
2018-01-13T21:08:08.728Z,31.20
2018-01-13T21:10:36.928Z,32.88
2018-01-13T21:13:04.791Z,28.30
2018-01-13T21:15:32.695Z,28.50
2018-01-13T21:18:00.936Z,27.70
2018-01-13T21:20:29.215Z,28.90
2018-01-13T21:22:57.468Z,31.05
2018-01-13T21:25:26.076Z,29.77
2018-01-13T21:27:54.317Z,28.75
2018-01-13T21:30:22.198Z,29.75
2018-01-13T21:32:49.977Z,30.58
2018-01-13T21:35:17.855Z,31.98
2018-01-13T21:37:45.369Z,31.30
2018-01-13T21:40:13.211Z,28.25
2018-01-13T21:42:40.718Z,26.05
2018-01-13T21:45:08.219Z,26.92
2018-01-13T21:47:37.275Z,28.08
2018-01-13T21:50:05.145Z,30.60
2018-01-13T21:52:33.303Z,33.13
2018-01-13T21:55:01.158Z,32.47
2018-01-13T21:57:28.887Z,35.55
2018-01-13T21:59:56.450Z,34.13
2018-01-13T22:02:24.213Z,32.47
2018-01-13T22:04:52.067Z,33.78
2018-01-13T22:07:19.935Z,29.45
2018-01-13T22:09:48.182Z,30.27
2018-01-13T22:12:16.103Z,29.90
2018-01-13T22:14:43.620Z,33.72
2018-01-13T22:17:11.879Z,28.55
2018-01-13T22:19:40.131Z,27.58
2018-01-13T22:22:08.013Z,35.22
2018-01-13T22:24:37.012Z,37.80
2018-01-13T22:27:05.271Z,31.15
2018-01-13T22:29:33.166Z,30.17
2018-01-13T22:32:01.455Z,34.15
2018-01-13T22:34:29.329Z,35.38
2018-01-13T22:36:56.803Z,37.75
2018-01-13T22:39:24.667Z,40.55
2018-01-13T22:41:52.941Z,43.72
2018-01-13T22:44:20.836Z,42.20
2018-01-13T22:46:48.629Z,34.35
2018-01-13T22:49:16.883Z,32.85
2018-01-13T22:51:44.360Z,29.75
2018-01-13T22:54:12.957Z,27.50
2018-01-13T22:56:41.214Z,29.35
2018-01-13T22:59:09.132Z,29.58
2018-01-13T23:01:36.950Z,30.02
2018-01-13T23:04:04.411Z,29.23
2018-01-13T23:06:32.275Z,27.50
2018-01-13T23:09:00.495Z,29.63
2018-01-13T23:11:27.963Z,29.73
2018-01-13T23:13:56.566Z,28.02
2018-01-13T23:16:24.362Z,28.85
2018-01-13T23:18:51.889Z,31.12
2018-01-13T23:21:19.762Z,27.33
2018-01-13T23:23:47.951Z,29.25
2018-01-13T23:26:16.208Z,27.27
2018-01-13T23:28:43.675Z,29.23
2018-01-13T23:31:11.555Z,29.17
2018-01-13T23:33:39.811Z,29.90
2018-01-13T23:36:07.679Z,34.90
2018-01-13T23:38:35.568Z,31.20
2018-01-13T23:41:03.803Z,26.85
2018-01-13T23:43:31.268Z,26.98
2018-01-13T23:45:59.067Z,29.35
2018-01-13T23:48:27.315Z,26.23
2018-01-13T23:50:54.837Z,27.58
2018-01-13T23:53:23.084Z,29.90
2018-01-13T23:55:51.332Z,29.95
2018-01-13T23:58:19.202Z,62.42
